Fig, North Carolina
Current Conditions -  °F | °C
As of 4:55 PM on Monday 22 Dec 2014 (Local Time) from KGEV Reporting Station
Moderate Fog Moderate Fog  
Wind Chill: 37°   Ceiling: 300
Heat Index: 37°   Visibility: 0mi
Dew Point: 37°   Wind: 0mph
Humidity: 100%   Direction: NA
Pressure: 29.97"   Gusts: NA
Location:  36.4481°N, 81.6486°W
Report Text: KGEV 222155Z AUTO 00000KT M1/4SM FG OVC003 03/03 A2997 RMK AO2 T00260026
Loading
Personal Weather Stations






























Interactive Weather Map New forecast layout! Learn more

10-Day Weather Forecast

Advertisements
Track Severe Weather on mobile